Check out our new BloomSky Weather System.

Active alerts

Houston, TX
  Details for Houston, TX Dense Fog Advisory


Thunder radar  blitzortung!


Rain radar more information rain snow radar


Visit our other weather sites:

Template documentation
and downloads

And another site



Weather Underground History page Text

Daily Summary for August 23, 2017 Units:  English    Metric   Both
« Previous Day
Next Day »
Daily Weekly Monthly Yearly Custom
  High: Low: Average:
Temperature: 95.5 °F 76.6 °F 85.6 °F
Dew Point: 79.3 °F 73.8 °F 76 °F
Humidity: 94 % 50 % 74 %
Wind Speed: 8.0 mph 0.0 mph 1.4 mph
Wind Gust: 13.0 mph - -
Wind:- - South
Pressure: 29.98 in 29.83 in -
Precipitation: 0.00 in    
Historical Graphs
 
 
Tabular Data for August 23, 2017
Time Temperature Dew Point Pressure Wind Wind Speed Wind Gust Humidity Rainfall Rate (Hourly)
00:00 82.8 °F 75.6 °F 29.97 in Calm   3.0 mph 79 % 0.00 in
00:05 82.6 °F 75.7 °F 29.97 in SSW 1.0 mph 3.0 mph 80 % 0.00 in
00:15 82.2 °F 75.7 °F 29.98 in Calm   2.0 mph 81 % 0.00 in
00:20 82.0 °F 75.6 °F 29.98 in Calm   2.0 mph 81 % 0.00 in
00:25 82.0 °F 75.9 °F 29.98 in SSE 1.0 mph 2.0 mph 82 % 0.00 in
00:30 82.0 °F 75.9 °F 29.97 in Calm   2.0 mph 82 % 0.00 in
00:35 81.9 °F 75.7 °F 29.98 in South 1.0 mph 3.0 mph 82 % 0.00 in
00:40 81.9 °F 75.7 °F 29.97 in Calm   3.0 mph 82 % 0.00 in
00:45 81.7 °F 75.9 °F 29.97 in Calm   3.0 mph 83 % 0.00 in
00:51 81.3 °F 75.7 °F 29.97 in Calm   1.0 mph 83 % 0.00 in
00:56 81.3 °F 76.1 °F 29.98 in Calm   1.0 mph 84 % 0.00 in
01:01 81.3 °F 76.1 °F 29.98 in Calm   1.0 mph 84 % 0.00 in
01:06 81.3 °F 76.1 °F 29.98 in Calm   1.0 mph 84 % 0.00 in
01:11 81.1 °F 76.3 °F 29.98 in Calm   1.0 mph 85 % 0.00 in
01:16 81.1 °F 76.3 °F 29.98 in South 1.0 mph 1.0 mph 85 % 0.00 in
01:21 81.1 °F 76.3 °F 29.98 in Calm   1.0 mph 85 % 0.00 in
01:26 81.0 °F 76.1 °F 29.98 in Calm   1.0 mph 85 % 0.00 in
01:31 81.0 °F 76.1 °F 29.98 in Calm   1.0 mph 85 % 0.00 in
01:36 80.8 °F 76.3 °F 29.98 in Calm     86 % 0.00 in
01:41 80.4 °F 75.9 °F 29.98 in Calm     86 % 0.00 in
01:46 80.2 °F 75.7 °F 29.98 in Calm     86 % 0.00 in
01:52 80.1 °F 75.9 °F 29.98 in Calm     87 % 0.00 in
01:57 80.1 °F 75.9 °F 29.98 in Calm     87 % 0.00 in
02:02 79.9 °F 75.7 °F 29.97 in Calm     87 % 0.00 in
02:07 79.9 °F 75.9 °F 29.97 in Calm     88 % 0.00 in
02:12 79.5 °F 75.6 °F 29.97 in Calm     88 % 0.00 in
02:17 79.3 °F 75.6 °F 29.97 in Calm     88 % 0.00 in
02:22 79.2 °F 75.0 °F 29.97 in Calm     87 % 0.00 in
02:27 79.0 °F 75.2 °F 29.97 in Calm     88 % 0.00 in
02:32 79.0 °F 75.4 °F 29.97 in Calm     89 % 0.00 in
02:37 79.0 °F 75.4 °F 29.97 in Calm     89 % 0.00 in
02:42 79.0 °F 75.7 °F 29.97 in Calm     90 % 0.00 in
02:47 78.8 °F 75.6 °F 29.97 in Calm     90 % 0.00 in
02:52 78.6 °F 75.4 °F 29.97 in Calm     90 % 0.00 in
02:57 78.6 °F 75.4 °F 29.97 in Calm     90 % 0.00 in
03:02 78.4 °F 75.2 °F 29.97 in Calm     90 % 0.00 in
03:07 78.4 °F 75.2 °F 29.97 in Calm     90 % 0.00 in
03:12 78.3 °F 75.0 °F 29.96 in Calm     90 % 0.00 in
03:17 78.3 °F 75.4 °F 29.96 in Calm     91 % 0.00 in
03:22 78.3 °F 75.4 °F 29.96 in Calm     91 % 0.00 in
03:27 78.3 °F 75.4 °F 29.96 in Calm     91 % 0.00 in
03:32 78.1 °F 75.2 °F 29.96 in Calm     91 % 0.00 in
03:37 77.9 °F 75.0 °F 29.96 in Calm     91 % 0.00 in
03:42 77.7 °F 74.8 °F 29.96 in Calm     91 % 0.00 in
03:47 77.5 °F 74.7 °F 29.96 in Calm     91 % 0.00 in
03:52 77.4 °F 74.8 °F 29.96 in Calm     92 % 0.00 in
03:57 77.4 °F 74.8 °F 29.95 in Calm     92 % 0.00 in
04:02 77.4 °F 74.8 °F 29.95 in Calm     92 % 0.00 in
04:07 77.4 °F 74.8 °F 29.95 in Calm     92 % 0.00 in
04:12 77.4 °F 74.8 °F 29.96 in Calm     92 % 0.00 in
04:17 77.5 °F 75.4 °F 29.96 in Calm     93 % 0.00 in
04:22 77.5 °F 75.0 °F 29.96 in Calm     92 % 0.00 in
04:27 77.7 °F 75.2 °F 29.95 in Calm     92 % 0.00 in
04:32 77.5 °F 75.0 °F 29.96 in Calm     92 % 0.00 in
04:37 77.4 °F 74.8 °F 29.96 in Calm     92 % 0.00 in
04:42 77.4 °F 75.2 °F 29.96 in Calm     93 % 0.00 in
04:47 77.5 °F 75.4 °F 29.96 in Calm     93 % 0.00 in
04:52 77.4 °F 74.8 °F 29.95 in Calm     92 % 0.00 in
04:57 77.4 °F 74.8 °F 29.95 in Calm     92 % 0.00 in
05:02 77.2 °F 75.0 °F 29.96 in Calm     93 % 0.00 in
05:07 77.4 °F 75.2 °F 29.96 in Calm     93 % 0.00 in
05:12 77.5 °F 75.4 °F 29.96 in Calm     93 % 0.00 in
05:17 77.5 °F 75.4 °F 29.96 in Calm     93 % 0.00 in
05:22 77.4 °F 75.2 °F 29.96 in Calm     93 % 0.00 in
05:27 77.2 °F 74.7 °F 29.96 in Calm     92 % 0.00 in
05:32 76.8 °F 74.7 °F 29.96 in Calm     93 % 0.00 in
05:37 76.8 °F 74.7 °F 29.96 in Calm     93 % 0.00 in
05:42 76.6 °F 74.5 °F 29.96 in Calm     93 % 0.00 in
05:47 76.8 °F 75.0 °F 29.96 in Calm     94 % 0.00 in
05:52 76.8 °F 75.0 °F 29.96 in Calm     94 % 0.00 in
05:57 76.8 °F 75.0 °F 29.96 in Calm     94 % 0.00 in
06:02 76.8 °F 75.0 °F 29.96 in Calm     94 % 0.00 in
06:07 76.8 °F 75.0 °F 29.97 in Calm     94 % 0.00 in
06:12 76.8 °F 75.0 °F 29.97 in Calm     94 % 0.00 in
06:13 76.8 °F 75.0 °F 29.97 in Calm     94 % 0.00 in
06:18 76.8 °F 75.0 °F 29.97 in Calm     94 % 0.00 in
06:20 77.0 °F 75.2 °F 29.97 in Calm   1.0 mph 94 % 0.00 in
06:25 77.0 °F 75.2 °F 29.97 in Calm   1.0 mph 94 % 0.00 in
06:30 77.2 °F 75.4 °F 29.97 in SW 1.0 mph 1.0 mph 94 % 0.00 in
06:35 77.2 °F 75.0 °F 29.97 in West 1.0 mph 1.0 mph 93 % 0.00 in
06:40 77.0 °F 74.8 °F 29.97 in Calm   1.0 mph 93 % 0.00 in
06:45 77.0 °F 74.8 °F 29.97 in Calm   1.0 mph 93 % 0.00 in
06:50 77.0 °F 74.8 °F 29.97 in Calm   1.0 mph 93 % 0.00 in
06:55 76.8 °F 74.7 °F 29.97 in Calm   1.0 mph 93 % 0.00 in
07:00 76.8 °F 74.7 °F 29.97 in West 1.0 mph 1.0 mph 93 % 0.00 in
07:01 76.8 °F 74.7 °F 29.97 in Calm   1.0 mph 93 % 0.00 in
07:06 76.8 °F 74.7 °F 29.97 in Calm   1.0 mph 93 % 0.00 in
07:11 76.8 °F 74.7 °F 29.97 in Calm   1.0 mph 93 % 0.00 in
07:16 77.0 °F 74.8 °F 29.97 in Calm   1.0 mph 93 % 0.00 in
07:21 77.2 °F 75.0 °F 29.97 in Calm   1.0 mph 93 % 0.00 in
07:26 77.2 °F 75.0 °F 29.97 in Calm   1.0 mph 93 % 0.00 in
07:31 77.4 °F 75.2 °F 29.97 in WNW 1.0 mph 2.0 mph 93 % 0.00 in
07:36 77.5 °F 75.4 °F 29.97 in NW 1.0 mph 2.0 mph 93 % 0.00 in
07:41 77.7 °F 75.2 °F 29.97 in Calm   2.0 mph 92 % 0.00 in
07:46 78.1 °F 75.6 °F 29.97 in Calm   2.0 mph 92 % 0.00 in
07:51 78.6 °F 76.1 °F 29.97 in Calm   2.0 mph 92 % 0.00 in
07:56 79.2 °F 76.3 °F 29.97 in Calm   1.0 mph 91 % 0.00 in
08:01 79.9 °F 76.6 °F 29.97 in Calm     90 % 0.00 in
08:06 80.6 °F 77.4 °F 29.97 in Calm   1.0 mph 90 % 0.00 in
08:11 81.5 °F 77.2 °F 29.97 in Calm   1.0 mph 87 % 0.00 in
08:16 81.7 °F 77.0 °F 29.97 in Calm   2.0 mph 86 % 0.00 in
08:21 82.4 °F 77.7 °F 29.97 in Calm   2.0 mph 86 % 0.00 in
08:26 83.1 °F 77.4 °F 29.97 in Calm   2.0 mph 83 % 0.00 in
08:31 83.5 °F 77.7 °F 29.97 in Calm   2.0 mph 83 % 0.00 in
08:36 84.0 °F 78.3 °F 29.97 in Calm   1.0 mph 83 % 0.00 in
08:41 84.7 °F 78.3 °F 29.97 in Calm   2.0 mph 81 % 0.00 in
08:46 84.7 °F 77.9 °F 29.97 in NW 3.0 mph 3.0 mph 80 % 0.00 in
08:52 84.0 °F 77.5 °F 29.97 in Calm   4.0 mph 81 % 0.00 in
08:57 84.0 °F 77.9 °F 29.97 in NW 2.0 mph 4.0 mph 82 % 0.00 in
09:02 84.0 °F 77.9 °F 29.97 in Calm   4.0 mph 82 % 0.00 in
09:07 84.6 °F 78.1 °F 29.98 in Calm   4.0 mph 81 % 0.00 in
09:12 84.9 °F 78.1 °F 29.98 in Calm   4.0 mph 80 % 0.00 in
09:17 85.5 °F 79.0 °F 29.97 in Calm   3.0 mph 81 % 0.00 in
09:22 86.4 °F 78.3 °F 29.98 in West 1.0 mph 3.0 mph 77 % 0.00 in
09:27 86.4 °F 78.3 °F 29.97 in Calm   6.0 mph 77 % 0.00 in
09:32 86.5 °F 78.8 °F 29.97 in Calm   6.0 mph 78 % 0.00 in
09:37 87.3 °F 78.8 °F 29.97 in NW 2.0 mph 6.0 mph 76 % 0.00 in
09:42 87.1 °F 79.3 °F 29.97 in Calm   5.0 mph 78 % 0.00 in
09:47 87.3 °F 78.8 °F 29.97 in WNW 3.0 mph 5.0 mph 76 % 0.00 in
09:52 86.9 °F 78.8 °F 29.97 in WSW 2.0 mph 5.0 mph 77 % 0.00 in
09:57 87.1 °F 79.0 °F 29.97 in Calm   6.0 mph 77 % 0.00 in
10:02 87.3 °F 78.8 °F 29.98 in NW 3.0 mph 6.0 mph 76 % 0.00 in
10:07 86.7 °F 78.3 °F 29.98 in WNW 1.0 mph 6.0 mph 76 % 0.00 in
10:12 86.9 °F 78.4 °F 29.98 in Calm   5.0 mph 76 % 0.00 in
10:17 88.2 °F 78.8 °F 29.98 in WSW 1.0 mph 5.0 mph 74 % 0.00 in
10:22 88.9 °F 78.3 °F 29.97 in NW 3.0 mph 4.0 mph 71 % 0.00 in
10:27 89.2 °F 78.6 °F 29.97 in WNW 1.0 mph 5.0 mph 71 % 0.00 in
10:32 89.6 °F 77.5 °F 29.97 in NW 5.0 mph 5.0 mph 68 % 0.00 in
10:37 89.4 °F 78.3 °F 29.97 in NW 2.0 mph 6.0 mph 70 % 0.00 in
10:42 89.2 °F 78.1 °F 29.97 in WNW 1.0 mph 6.0 mph 70 % 0.00 in
10:47 89.6 °F 77.5 °F 29.97 in North 2.0 mph 6.0 mph 68 % 0.00 in
10:52 90.0 °F 78.4 °F 29.97 in Calm   6.0 mph 69 % 0.00 in
10:57 90.7 °F 78.3 °F 29.97 in Calm   6.0 mph 67 % 0.00 in
11:02 90.5 °F 78.1 °F 29.97 in Calm   6.0 mph 67 % 0.00 in
11:07 90.3 °F 77.9 °F 29.97 in NNW 3.0 mph 6.0 mph 67 % 0.00 in
11:12 89.8 °F 75.9 °F 29.97 in NNW 1.0 mph 6.0 mph 64 % 0.00 in
11:17 89.8 °F 75.9 °F 29.97 in WNW 1.0 mph 5.0 mph 64 % 0.00 in
11:22 90.1 °F 76.8 °F 29.96 in ENE 1.0 mph 5.0 mph 65 % 0.00 in
11:27 91.0 °F 77.2 °F 29.96 in NNW 2.0 mph 5.0 mph 64 % 0.00 in
11:32 91.0 °F 76.3 °F 29.96 in NW 3.0 mph 9.0 mph 62 % 0.00 in
11:37 90.1 °F 75.9 °F 29.96 in Calm   9.0 mph 63 % 0.00 in
11:42 90.3 °F 77.0 °F 29.96 in Calm   9.0 mph 65 % 0.00 in
11:47 91.2 °F 75.4 °F 29.96 in NNW 4.0 mph 5.0 mph 60 % 0.00 in
11:52 90.9 °F 74.5 °F 29.96 in NW 4.0 mph 8.0 mph 59 % 0.00 in
11:57 90.3 °F 74.5 °F 29.95 in NNW 4.0 mph 8.0 mph 60 % 0.00 in
12:07 91.4 °F 75.0 °F 29.95 in West 2.0 mph 7.0 mph 59 % 0.00 in
12:12 91.8 °F 76.8 °F 29.95 in NW 3.0 mph 6.0 mph 62 % 0.00 in
12:17 90.9 °F 76.1 °F 29.95 in North 1.0 mph 6.0 mph 62 % 0.00 in
12:22 90.3 °F 75.9 °F 29.94 in NW 5.0 mph 7.0 mph 63 % 0.00 in
12:27 90.1 °F 75.9 °F 29.94 in NNW 4.0 mph 8.0 mph 63 % 0.00 in
12:32 90.5 °F 76.1 °F 29.94 in NW 2.0 mph 8.0 mph 63 % 0.00 in
12:37 91.2 °F 75.9 °F 29.94 in NW 3.0 mph 8.0 mph 61 % 0.00 in
12:42 92.1 °F 75.7 °F 29.94 in NW 4.0 mph 7.0 mph 59 % 0.00 in
12:47 92.3 °F 75.4 °F 29.93 in Calm   7.0 mph 58 % 0.00 in
12:52 92.8 °F 74.8 °F 29.93 in NW 6.0 mph 7.0 mph 56 % 0.00 in
12:57 93.6 °F 76.6 °F 29.92 in Calm   7.0 mph 58 % 0.00 in
13:02 94.8 °F 75.6 °F 29.92 in NW 1.0 mph 7.0 mph 54 % 0.00 in
13:07 94.8 °F 75.0 °F 29.92 in Calm   6.0 mph 53 % 0.00 in
13:12 94.8 °F 75.0 °F 29.92 in WNW 2.0 mph 8.0 mph 53 % 0.00 in
13:17 95.0 °F 75.2 °F 29.92 in NE 3.0 mph 8.0 mph 53 % 0.00 in
13:22 95.2 °F 75.9 °F 29.91 in North 5.0 mph 8.0 mph 54 % 0.00 in
13:27 95.2 °F 75.9 °F 29.91 in WNW 2.0 mph 9.0 mph 54 % 0.00 in
13:28 95.2 °F 75.9 °F 29.91 in North 4.0 mph 9.0 mph 54 % 0.00 in
13:33 95.2 °F 75.9 °F 29.91 in NNW 4.0 mph 9.0 mph 54 % 0.00 in
13:39 94.3 °F 76.1 °F 29.91 in ENE 3.0 mph 9.0 mph 56 % 0.00 in
13:49 93.4 °F 75.4 °F 29.90 in ENE 4.0 mph 7.0 mph 56 % 0.00 in
13:54 93.7 °F 75.7 °F 29.90 in North 2.0 mph 7.0 mph 56 % 0.00 in
13:59 94.3 °F 76.1 °F 29.90 in NW 1.0 mph 10.0 mph 56 % 0.00 in
14:04 94.5 °F 75.7 °F 29.90 in ESE 5.0 mph 10.0 mph 55 % 0.00 in
14:09 94.3 °F 75.6 °F 29.90 in SSE 3.0 mph 10.0 mph 55 % 0.00 in
14:14 94.3 °F 76.6 °F 29.89 in SE 2.0 mph 8.0 mph 57 % 0.00 in
14:19 94.1 °F 75.4 °F 29.89 in East 3.0 mph 9.0 mph 55 % 0.00 in
14:24 93.7 °F 75.7 °F 29.89 in ESE 3.0 mph 10.0 mph 56 % 0.00 in
14:29 94.3 °F 75.6 °F 29.89 in East 3.0 mph 10.0 mph 55 % 0.00 in
14:34 94.8 °F 76.1 °F 29.88 in SSE 5.0 mph 10.0 mph 55 % 0.00 in
14:39 95.0 °F 75.2 °F 29.88 in North 2.0 mph 8.0 mph 53 % 0.00 in
14:44 94.3 °F 76.6 °F 29.88 in SSW 7.0 mph 8.0 mph 57 % 0.00 in
14:49 93.7 °F 76.3 °F 29.88 in North 2.0 mph 10.0 mph 57 % 0.00 in
14:54 93.4 °F 74.8 °F 29.87 in East 2.0 mph 10.0 mph 55 % 0.00 in
14:59 93.2 °F 76.3 °F 29.87 in NE 3.0 mph 10.0 mph 58 % 0.00 in
15:04 93.7 °F 75.2 °F 29.87 in ESE 3.0 mph 8.0 mph 55 % 0.00 in
15:09 94.6 °F 75.9 °F 29.87 in NE 2.0 mph 8.0 mph 55 % 0.00 in
15:14 95.2 °F 76.5 °F 29.86 in ENE 2.0 mph 7.0 mph 55 % 0.00 in
15:19 95.4 °F 76.6 °F 29.86 in ENE 3.0 mph 7.0 mph 55 % 0.00 in
15:24 95.5 °F 73.9 °F 29.86 in ENE 3.0 mph 7.0 mph 50 % 0.00 in
15:29 95.4 °F 73.8 °F 29.86 in North 3.0 mph 7.0 mph 50 % 0.00 in
15:34 95.5 °F 75.0 °F 29.85 in SE 3.0 mph 7.0 mph 52 % 0.00 in
15:39 95.4 °F 75.0 °F 29.85 in ENE 4.0 mph 9.0 mph 52 % 0.00 in
15:44 94.6 °F 74.8 °F 29.85 in SSE 6.0 mph 11.0 mph 53 % 0.00 in
15:49 93.9 °F 74.7 °F 29.85 in ESE 1.0 mph 11.0 mph 54 % 0.00 in
15:54 93.7 °F 75.2 °F 29.85 in NE 5.0 mph 11.0 mph 55 % 0.00 in
15:59 93.0 °F 75.0 °F 29.85 in ENE 1.0 mph 9.0 mph 56 % 0.00 in
16:04 92.8 °F 74.8 °F 29.85 in North 3.0 mph 8.0 mph 56 % 0.00 in
16:09 92.3 °F 75.4 °F 29.85 in NNW 4.0 mph 8.0 mph 58 % 0.00 in
16:14 91.8 °F 75.4 °F 29.85 in North 3.0 mph 8.0 mph 59 % 0.00 in
16:19 91.6 °F 75.7 °F 29.84 in NNW 2.0 mph 8.0 mph 60 % 0.00 in
16:24 92.1 °F 75.7 °F 29.84 in WNW 2.0 mph 7.0 mph 59 % 0.00 in
16:29 93.0 °F 75.6 °F 29.84 in ENE 3.0 mph 7.0 mph 57 % 0.00 in
16:34 93.0 °F 75.0 °F 29.84 in Calm   5.0 mph 56 % 0.00 in
16:39 92.8 °F 75.9 °F 29.83 in North 3.0 mph 6.0 mph 58 % 0.00 in
16:44 92.1 °F 75.7 °F 29.83 in NNW 2.0 mph 6.0 mph 59 % 0.00 in
16:49 91.6 °F 75.7 °F 29.83 in WNW 2.0 mph 6.0 mph 60 % 0.00 in
16:54 91.2 °F 75.9 °F 29.83 in NNW 3.0 mph 6.0 mph 61 % 0.00 in
16:59 91.4 °F 76.5 °F 29.83 in North 1.0 mph 6.0 mph 62 % 0.00 in
17:04 91.9 °F 76.1 °F 29.83 in West 1.0 mph 5.0 mph 60 % 0.00 in
17:09 92.8 °F 75.9 °F 29.83 in ENE 2.0 mph 5.0 mph 58 % 0.00 in
17:14 93.4 °F 75.4 °F 29.83 in SSE 3.0 mph 4.0 mph 56 % 0.00 in
17:19 93.6 °F 77.5 °F 29.83 in SE 8.0 mph 8.0 mph 60 % 0.00 in
17:24 92.8 °F 77.9 °F 29.83 in ESE 7.0 mph 12.0 mph 62 % 0.00 in
17:29 91.9 °F 76.6 °F 29.83 in ESE 4.0 mph 12.0 mph 61 % 0.00 in
17:34 91.6 °F 76.6 °F 29.83 in ESE 2.0 mph 12.0 mph 62 % 0.00 in
17:39 91.6 °F 76.6 °F 29.83 in ESE 5.0 mph 11.0 mph 62 % 0.00 in
17:44 91.8 °F 76.8 °F 29.83 in SE 3.0 mph 11.0 mph 62 % 0.00 in
17:49 91.8 °F 76.8 °F 29.83 in ENE 6.0 mph 10.0 mph 62 % 0.00 in
17:54 91.9 °F 76.6 °F 29.83 in ESE 6.0 mph 12.0 mph 61 % 0.00 in
17:59 91.9 °F 76.6 °F 29.83 in ESE 5.0 mph 12.0 mph 61 % 0.00 in
18:04 91.9 °F 76.6 °F 29.83 in SE 4.0 mph 12.0 mph 61 % 0.00 in
18:09 92.1 °F 76.3 °F 29.83 in ESE 7.0 mph 11.0 mph 60 % 0.00 in
18:14 91.8 °F 76.5 °F 29.83 in SSE 4.0 mph 11.0 mph 61 % 0.00 in
18:20 91.8 °F 76.8 °F 29.83 in East 3.0 mph 12.0 mph 62 % 0.00 in
18:25 91.2 °F 76.8 °F 29.83 in East 7.0 mph 12.0 mph 63 % 0.00 in
18:30 91.0 °F 77.2 °F 29.84 in SE 7.0 mph 13.0 mph 64 % 0.00 in
18:35 90.7 °F 76.8 °F 29.84 in ESE 5.0 mph 13.0 mph 64 % 0.00 in
18:40 90.3 °F 76.5 °F 29.84 in SE 3.0 mph 13.0 mph 64 % 0.00 in
18:45 90.3 °F 76.5 °F 29.84 in East 3.0 mph 12.0 mph 64 % 0.00 in
18:50 90.3 °F 75.6 °F 29.84 in SE 4.0 mph 12.0 mph 62 % 0.00 in
18:55 90.5 °F 76.1 °F 29.84 in Calm   10.0 mph 63 % 0.00 in
19:00 90.7 °F 76.3 °F 29.84 in ENE 2.0 mph 10.0 mph 63 % 0.00 in
19:05 90.3 °F 75.9 °F 29.84 in NE 4.0 mph 8.0 mph 63 % 0.00 in
19:10 90.1 °F 75.9 °F 29.85 in South 2.0 mph 9.0 mph 63 % 0.00 in
19:15 90.0 °F 75.2 °F 29.85 in East 5.0 mph 9.0 mph 62 % 0.00 in
19:20 89.6 °F 75.4 °F 29.85 in ESE 4.0 mph 9.0 mph 63 % 0.00 in
19:25 89.4 °F 75.6 °F 29.85 in SSE 3.0 mph 8.0 mph 64 % 0.00 in
19:30 89.1 °F 75.7 °F 29.84 in ESE 2.0 mph 10.0 mph 65 % 0.00 in
19:35 88.7 °F 75.9 °F 29.85 in South 1.0 mph 10.0 mph 66 % 0.00 in
19:40 88.3 °F 75.9 °F 29.85 in SSE 2.0 mph 10.0 mph 67 % 0.00 in
19:45 88.0 °F 76.1 °F 29.85 in South 2.0 mph 7.0 mph 68 % 0.00 in
19:50 87.6 °F 74.8 °F 29.85 in SE 3.0 mph 7.0 mph 66 % 0.00 in
19:55 87.6 °F 74.3 °F 29.85 in East 4.0 mph 7.0 mph 65 % 0.00 in
20:00 87.6 °F 74.3 °F 29.85 in East 2.0 mph 7.0 mph 65 % 0.00 in
20:05 87.4 °F 74.3 °F 29.85 in East 2.0 mph 7.0 mph 65 % 0.00 in
20:10 87.4 °F 74.3 °F 29.85 in SE 3.0 mph 7.0 mph 65 % 0.00 in
20:15 87.3 °F 74.5 °F 29.85 in ESE 3.0 mph 6.0 mph 66 % 0.00 in
20:20 87.3 °F 75.0 °F 29.85 in SSE 4.0 mph 6.0 mph 67 % 0.00 in
20:25 87.1 °F 74.8 °F 29.85 in ESE 3.0 mph 6.0 mph 67 % 0.00 in
20:30 87.1 °F 75.2 °F 29.85 in ENE 3.0 mph 6.0 mph 68 % 0.00 in
20:35 86.9 °F 75.6 °F 29.85 in ESE 1.0 mph 6.0 mph 69 % 0.00 in
20:40 86.7 °F 75.4 °F 29.84 in SE 2.0 mph 5.0 mph 69 % 0.00 in
20:45 86.5 °F 75.6 °F 29.85 in ESE 3.0 mph 5.0 mph 70 % 0.00 in
20:50 86.5 °F 75.6 °F 29.85 in Calm   5.0 mph 70 % 0.00 in
20:55 86.4 °F 75.4 °F 29.85 in ESE 2.0 mph 5.0 mph 70 % 0.00 in
21:00 86.4 °F 75.4 °F 29.86 in East 3.0 mph 5.0 mph 70 % 0.00 in
21:05 86.2 °F 75.7 °F 29.86 in Calm   5.0 mph 71 % 0.00 in
21:10 86.2 °F 75.7 °F 29.87 in East 1.0 mph 5.0 mph 71 % 0.00 in
21:15 85.8 °F 75.4 °F 29.87 in Calm   4.0 mph 71 % 0.00 in
21:20 85.8 °F 75.4 °F 29.88 in ENE 1.0 mph 2.0 mph 71 % 0.00 in
21:26 85.6 °F 75.2 °F 29.88 in ESE 1.0 mph 3.0 mph 71 % 0.00 in
21:31 85.8 °F 75.4 °F 29.88 in SE 3.0 mph 3.0 mph 71 % 0.00 in
21:36 85.6 °F 75.2 °F 29.88 in ESE 2.0 mph 3.0 mph 71 % 0.00 in
21:41 85.5 °F 75.4 °F 29.88 in SE 1.0 mph 3.0 mph 72 % 0.00 in
21:46 85.5 °F 75.4 °F 29.88 in East 2.0 mph 3.0 mph 72 % 0.00 in
21:51 85.3 °F 75.6 °F 29.88 in SSE 3.0 mph 3.0 mph 73 % 0.00 in
21:56 85.1 °F 75.4 °F 29.88 in ESE 2.0 mph 4.0 mph 73 % 0.00 in
22:01 85.1 °F 75.4 °F 29.88 in Calm   4.0 mph 73 % 0.00 in
22:06 84.9 °F 75.7 °F 29.88 in SSE 2.0 mph 4.0 mph 74 % 0.00 in
22:11 84.7 °F 75.6 °F 29.88 in Calm   3.0 mph 74 % 0.00 in
22:16 84.7 °F 75.6 °F 29.88 in Calm   3.0 mph 74 % 0.00 in
22:21 84.7 °F 75.9 °F 29.88 in SE 2.0 mph 3.0 mph 75 % 0.00 in
22:26 84.6 °F 75.7 °F 29.88 in Calm   2.0 mph 75 % 0.00 in
22:31 84.6 °F 75.7 °F 29.88 in Calm   2.0 mph 75 % 0.00 in
22:36 84.4 °F 75.9 °F 29.88 in Calm   2.0 mph 76 % 0.00 in
22:41 84.2 °F 75.7 °F 29.88 in Calm   2.0 mph 76 % 0.00 in
22:46 84.2 °F 76.3 °F 29.88 in Calm   2.0 mph 77 % 0.00 in
22:51 84.2 °F 76.3 °F 29.88 in Calm   1.0 mph 77 % 0.00 in
22:56 84.2 °F 76.3 °F 29.88 in Calm   1.0 mph 77 % 0.00 in
23:01 84.0 °F 76.1 °F 29.89 in Calm   1.0 mph 77 % 0.00 in
23:06 84.0 °F 76.5 °F 29.89 in Calm   1.0 mph 78 % 0.00 in
23:11 83.8 °F 76.3 °F 29.89 in Calm   1.0 mph 78 % 0.00 in
23:16 83.8 °F 76.6 °F 29.89 in Calm   1.0 mph 79 % 0.00 in
23:21 83.8 °F 76.6 °F 29.89 in Calm   1.0 mph 79 % 0.00 in
23:26 83.7 °F 76.5 °F 29.89 in Calm   1.0 mph 79 % 0.00 in
23:31 83.7 °F 76.8 °F 29.89 in Calm   1.0 mph 80 % 0.00 in
23:36 83.5 °F 76.6 °F 29.89 in Calm   1.0 mph 80 % 0.00 in
23:41 83.5 °F 76.6 °F 29.89 in Calm   1.0 mph 80 % 0.00 in
23:46 83.5 °F 77.0 °F 29.89 in NNW 1.0 mph 1.0 mph 81 % 0.00 in
23:48 83.5 °F 77.0 °F 29.89 in Calm   1.0 mph 81 % 0.00 in
23:58 82.9 °F 77.2 °F 29.89 in NW 2.0 mph 2.0 mph 83 % 0.00 in
Spring, Texas: Villages of Bridgestone
Compliments of Weather Underground - 2.75 mb

Script developed by  Jim McMurry - jmcmurry@mwt.net Adapted for the template by  Wim van der Kuil - Leuven-Template.eu

You find our weather info also at:

UK Metoffice

WeatherCloud

Weather Underground

Mid-South Weather Network

AWEKAS

Citizen Weather Observer Program (CWOP)

HAMweather, WeatherForYou, PWS Weather

Equipment we use:

Weather-station
Davis Vantage Vue

Weather-program
Meteohub

Weather-server
Debian 7.9 x86 (Guest)

Provider
DreamHost

Davis Vantage Vue

Meteohub

Debian 7.9 x86 (Guest)

DreamHost